createdAt,value
2019-05-12T00:02:21.611Z,2.15
2019-05-12T00:04:49.018Z,1.80
2019-05-12T00:07:18.023Z,1.90
2019-05-12T00:09:47.442Z,1.82
2019-05-12T00:12:14.534Z,1.60
2019-05-12T00:14:42.064Z,1.87
2019-05-12T00:17:09.451Z,2.15
2019-05-12T00:19:37.786Z,1.52
2019-05-12T00:22:07.530Z,1.82
2019-05-12T00:24:34.463Z,1.80
2019-05-12T00:27:04.358Z,1.92
2019-05-12T00:29:31.750Z,2.00
2019-05-12T00:31:59.171Z,1.82
2019-05-12T00:34:28.702Z,1.57
2019-05-12T00:36:57.639Z,2.10
2019-05-12T00:39:24.913Z,1.98
2019-05-12T00:41:52.300Z,2.15
2019-05-12T00:44:19.735Z,1.62
2019-05-12T00:46:48.803Z,1.90
2019-05-12T00:49:18.452Z,1.90
2019-05-12T00:51:45.540Z,1.82
2019-05-12T00:54:12.940Z,1.80
2019-05-12T00:56:40.323Z,1.90
2019-05-12T00:59:08.377Z,2.35
2019-05-12T01:01:37.883Z,1.98
2019-05-12T01:04:05.202Z,2.05
2019-05-12T01:06:32.602Z,2.02
2019-05-12T01:08:59.986Z,2.25
2019-05-12T01:11:28.660Z,2.05
2019-05-12T01:13:58.151Z,2.52
2019-05-12T01:16:25.280Z,2.20
2019-05-12T01:18:52.672Z,2.10
2019-05-12T01:21:20.070Z,2.22
2019-05-12T01:23:56.391Z,2.12
2019-05-12T01:26:17.931Z,2.00
2019-05-12T01:28:45.458Z,1.92
2019-05-12T01:31:14.558Z,1.72
2019-05-12T01:33:41.958Z,2.40
2019-05-12T01:36:09.363Z,2.50
2019-05-12T01:38:37.999Z,2.72
2019-05-12T01:41:05.452Z,2.22
2019-05-12T01:43:32.849Z,2.27
2019-05-12T01:46:00.246Z,2.27
2019-05-12T01:48:28.713Z,2.42
2019-05-12T01:50:57.971Z,2.33
2019-05-12T01:53:25.443Z,2.20
2019-05-12T01:55:52.813Z,2.20
2019-05-12T01:58:20.199Z,2.20
2019-05-12T02:00:48.295Z,2.50
2019-05-12T02:03:17.683Z,2.80
2019-05-12T02:05:48.548Z,2.87
2019-05-12T02:08:21.698Z,2.55
2019-05-12T02:10:52.869Z,3.08
2019-05-12T02:13:20.255Z,3.20
2019-05-12T02:15:48.596Z,3.35
2019-05-12T02:18:17.833Z,2.90
2019-05-12T02:20:45.286Z,3.00
2019-05-12T02:23:12.692Z,3.22
2019-05-12T02:25:40.089Z,3.60
2019-05-12T02:28:09.338Z,3.30
2019-05-12T02:30:40.710Z,3.35
2019-05-12T02:33:05.860Z,3.70
2019-05-12T02:35:35.499Z,3.62
2019-05-12T02:38:04.786Z,3.90
2019-05-12T02:40:34.355Z,3.83
2019-05-12T02:43:00.822Z,3.60
2019-05-12T02:45:28.231Z,3.62
2019-05-12T02:47:55.615Z,4.03
2019-05-12T02:50:35.595Z,3.75
2019-05-12T02:53:05.120Z,3.95
2019-05-12T02:55:34.813Z,4.05
2019-05-12T02:58:05.039Z,4.20
2019-05-12T03:00:35.263Z,4.25
2019-05-12T03:03:05.446Z,4.37
2019-05-12T03:05:35.149Z,4.25
2019-05-12T03:08:04.863Z,4.25
2019-05-12T03:10:35.465Z,4.47
2019-05-12T03:13:04.397Z,4.58
2019-05-12T03:15:31.620Z,4.80
2019-05-12T03:17:59.010Z,5.00
2019-05-12T03:20:26.397Z,4.78
2019-05-12T03:22:55.398Z,4.70
2019-05-12T03:25:28.929Z,5.05
2019-05-12T03:27:54.575Z,4.83
2019-05-12T03:30:21.354Z,5.17
2019-05-12T03:32:48.735Z,4.53
2019-05-12T03:35:17.928Z,5.17
2019-05-12T03:37:45.477Z,4.62
2019-05-12T03:40:14.440Z,4.95
2019-05-12T03:42:44.466Z,4.62
2019-05-12T03:45:14.729Z,4.50
2019-05-12T03:47:40.391Z,4.40
2019-05-12T03:50:07.831Z,5.12
2019-05-12T03:52:35.276Z,4.80
2019-05-12T03:55:05.601Z,4.80
2019-05-12T03:57:34.541Z,5.00
2019-05-12T04:00:01.031Z,4.37
2019-05-12T04:02:28.522Z,4.92
2019-05-12T04:04:55.918Z,5.10
2019-05-12T04:07:24.308Z,4.53
2019-05-12T04:09:54.621Z,4.95
2019-05-12T04:12:21.107Z,4.70
2019-05-12T04:14:48.504Z,4.50
2019-05-12T04:17:15.865Z,5.25
2019-05-12T04:19:44.789Z,4.53
2019-05-12T04:22:15.175Z,4.90
2019-05-12T04:24:44.481Z,4.22
2019-05-12T04:27:10.927Z,4.62
2019-05-12T04:29:38.330Z,4.25
2019-05-12T04:32:05.726Z,4.17
2019-05-12T04:34:34.333Z,4.30
2019-05-12T04:37:04.579Z,3.92
2019-05-12T04:39:33.974Z,4.37
2019-05-12T04:42:00.195Z,4.00
2019-05-12T04:44:27.573Z,4.20
2019-05-12T04:46:55.623Z,4.30
2019-05-12T04:49:24.953Z,4.15
2019-05-12T04:51:54.555Z,3.95
2019-05-12T04:54:24.365Z,3.90
2019-05-12T04:56:50.679Z,3.90
2019-05-12T04:59:18.076Z,3.70
2019-05-12T05:01:45.685Z,3.90
2019-05-12T05:04:15.546Z,3.40
2019-05-12T05:06:44.839Z,3.58
2019-05-12T05:09:14.231Z,3.80
2019-05-12T05:11:40.847Z,3.67
2019-05-12T05:14:08.241Z,3.25
2019-05-12T05:16:35.632Z,3.77
2019-05-12T05:19:03.828Z,3.20
2019-05-12T05:21:31.210Z,2.87
2019-05-12T05:23:58.622Z,3.20
2019-05-12T05:26:28.280Z,2.90
2019-05-12T05:28:55.202Z,3.10
2019-05-12T05:31:24.335Z,2.98
2019-05-12T05:33:53.685Z,3.30
2019-05-12T05:36:21.016Z,3.45
2019-05-12T05:38:51.071Z,3.10
2019-05-12T05:41:17.602Z,2.98
2019-05-12T05:43:48.613Z,3.52
2019-05-12T05:46:14.210Z,3.00
2019-05-12T05:48:43.843Z,2.80
2019-05-12T05:51:10.834Z,3.00
2019-05-12T05:53:38.251Z,2.67
2019-05-12T05:56:05.613Z,3.02
2019-05-12T05:58:33.934Z,2.85
2019-05-12T06:01:03.878Z,2.62
2019-05-12T06:03:30.659Z,3.00
2019-05-12T06:06:01.396Z,2.75
2019-05-12T06:08:27.234Z,3.02
2019-05-12T06:10:54.623Z,2.87
2019-05-12T06:13:29.883Z,2.83
2019-05-12T06:15:51.210Z,2.75
2019-05-12T06:18:18.593Z,2.72
2019-05-12T06:20:45.894Z,2.83
2019-05-12T06:23:14.808Z,3.15
2019-05-12T06:25:49.500Z,2.92
2019-05-12T06:28:11.609Z,2.70
2019-05-12T06:30:44.463Z,2.67
2019-05-12T06:33:08.204Z,2.40
2019-05-12T06:35:42.136Z,2.42
2019-05-12T06:38:05.275Z,2.00
2019-05-12T06:40:40.302Z,2.05
2019-05-12T06:43:04.115Z,2.20
2019-05-12T06:45:34.072Z,2.15
2019-05-12T06:48:00.367Z,1.82
2019-05-12T06:50:28.654Z,2.05
2019-05-12T06:52:56.979Z,1.80
2019-05-12T06:55:28.594Z,2.10
2019-05-12T06:57:54.008Z,1.90
2019-05-12T07:00:22.300Z,1.90
2019-05-12T07:02:53.108Z,1.40
2019-05-12T07:05:19.750Z,1.40
2019-05-12T07:07:47.150Z,1.40
2019-05-12T07:10:35.131Z,1.60
2019-05-12T07:12:58.291Z,1.32
2019-05-12T07:15:14.367Z,1.27
2019-05-12T07:18:04.536Z,1.00
2019-05-12T07:20:35.329Z,1.40
2019-05-12T07:23:03.531Z,1.10
2019-05-12T07:25:31.759Z,1.07
2019-05-12T07:28:00.882Z,1.00
2019-05-12T07:30:31.921Z,0.98
2019-05-12T07:33:01.150Z,0.75
2019-05-12T07:35:28.451Z,0.80
2019-05-12T07:37:56.401Z,0.80
2019-05-12T07:40:29.907Z,0.60
2019-05-12T07:42:55.209Z,0.57
2019-05-12T07:45:25.230Z,0.70
2019-05-12T07:47:53.982Z,0.50
2019-05-12T07:50:24.845Z,0.70
2019-05-12T07:52:50.427Z,0.80
2019-05-12T07:55:17.846Z,0.70
2019-05-12T07:57:55.135Z,0.60
2019-05-12T08:00:21.171Z,0.80
2019-05-12T08:02:44.348Z,0.57
2019-05-12T08:05:19.541Z,0.80
2019-05-12T08:07:41.093Z,0.50
2019-05-12T08:10:17.721Z,0.70
2019-05-12T08:12:37.959Z,0.70
2019-05-12T08:15:09.684Z,0.75
2019-05-12T08:17:35.163Z,0.65
2019-05-12T08:20:04.466Z,0.82
2019-05-12T08:22:31.746Z,0.78
2019-05-12T08:24:59.167Z,0.90
2019-05-12T08:27:26.555Z,0.60
2019-05-12T08:30:01.202Z,0.57
2019-05-12T08:32:23.823Z,0.70
2019-05-12T08:34:54.144Z,0.50
2019-05-12T08:37:21.571Z,0.70
2019-05-12T08:39:53.393Z,0.68
2019-05-12T08:42:18.170Z,0.82
2019-05-12T08:44:45.553Z,0.68
2019-05-12T08:47:15.162Z,0.70
2019-05-12T08:49:51.095Z,0.70
2019-05-12T08:52:11.362Z,0.93
2019-05-12T08:54:39.575Z,0.60
2019-05-12T08:57:07.990Z,0.80
2019-05-12T08:59:35.444Z,0.70
2019-05-12T09:02:07.392Z,0.80
2019-05-12T09:04:33.925Z,1.27
2019-05-12T09:07:01.678Z,0.90
2019-05-12T09:09:29.196Z,0.82
2019-05-12T09:11:56.582Z,1.00
2019-05-12T09:14:24.022Z,1.00
2019-05-12T09:16:53.724Z,1.12
2019-05-12T09:19:24.903Z,1.25
2019-05-12T09:21:49.786Z,1.40
2019-05-12T09:24:21.754Z,1.47
2019-05-12T09:26:46.642Z,1.30
2019-05-12T09:29:14.086Z,1.00
2019-05-12T09:31:43.909Z,1.00
2019-05-12T09:34:14.151Z,1.20
2019-05-12T09:36:39.862Z,1.05
2019-05-12T09:39:07.472Z,1.50
2019-05-12T09:41:42.814Z,1.35
2019-05-12T09:44:04.649Z,1.42
2019-05-12T09:46:34.394Z,1.45
2019-05-12T09:49:01.259Z,1.35
2019-05-12T09:51:32.877Z,1.40
2019-05-12T09:53:57.924Z,0.98
2019-05-12T09:56:25.308Z,1.20
2019-05-12T09:59:01.670Z,1.30
2019-05-12T10:01:24.041Z,1.32
2019-05-12T10:03:51.171Z,2.77
2019-05-12T10:06:21.304Z,1.67
2019-05-12T10:08:47.770Z,1.40
2019-05-12T10:11:16.596Z,1.65
2019-05-12T10:13:44.969Z,1.70
2019-05-12T10:16:13.449Z,1.50
2019-05-12T10:18:43.128Z,1.10
2019-05-12T10:21:15.522Z,1.55
2019-05-12T10:23:39.631Z,1.00
2019-05-12T10:26:10.441Z,1.40
2019-05-12T10:28:36.219Z,1.32
2019-05-12T10:31:04.136Z,1.30
2019-05-12T10:33:33.679Z,1.00
2019-05-12T10:36:06.859Z,1.20
2019-05-12T10:38:30.083Z,1.60
2019-05-12T10:40:57.459Z,1.70
2019-05-12T10:43:24.870Z,1.60
2019-05-12T10:45:53.758Z,1.30
2019-05-12T10:48:23.223Z,1.55
2019-05-12T10:50:50.466Z,1.40
2019-05-12T10:53:18.040Z,1.37
2019-05-12T10:55:45.452Z,1.75
2019-05-12T10:58:14.517Z,1.40
2019-05-12T11:00:44.192Z,1.67
2019-05-12T11:03:14.673Z,1.50
2019-05-12T11:05:40.513Z,1.82
2019-05-12T11:08:10.975Z,1.80
2019-05-12T11:10:37.102Z,2.02
2019-05-12T11:13:08.195Z,1.62
2019-05-12T11:15:34.505Z,2.05
2019-05-12T11:18:07.103Z,1.92
2019-05-12T11:20:34.609Z,1.70
2019-05-12T11:23:03.500Z,1.90
2019-05-12T11:25:33.744Z,1.70
2019-05-12T11:28:00.335Z,1.75
2019-05-12T11:30:27.730Z,1.77
2019-05-12T11:32:55.114Z,1.50
2019-05-12T11:35:23.742Z,1.30
2019-05-12T11:37:53.605Z,1.32
2019-05-12T11:40:20.411Z,1.22
2019-05-12T11:42:59.049Z,1.50
2019-05-12T11:45:17.058Z,1.10
2019-05-12T11:47:44.732Z,1.25
2019-05-12T11:50:13.237Z,1.67
2019-05-12T11:52:40.718Z,1.37
2019-05-12T11:55:08.215Z,1.00
2019-05-12T11:57:35.624Z,1.80
2019-05-12T12:00:05.413Z,1.20
2019-05-12T12:02:34.203Z,1.35
2019-05-12T12:05:01.748Z,1.20
2019-05-12T12:07:29.156Z,1.22
2019-05-12T12:09:59.438Z,1.40
2019-05-12T12:12:25.756Z,1.00
2019-05-12T12:14:53.673Z,1.07
2019-05-12T12:17:25.085Z,2.42
2019-05-12T12:19:50.322Z,1.20
2019-05-12T12:22:20.375Z,1.50
2019-05-12T12:24:46.918Z,1.60
2019-05-12T12:27:14.350Z,1.35
2019-05-12T12:29:43.920Z,1.80
2019-05-12T12:32:18.477Z,1.55
2019-05-12T12:34:40.115Z,1.75
2019-05-12T12:37:07.490Z,1.62
2019-05-12T12:39:34.908Z,1.70
2019-05-12T12:42:04.287Z,1.57
2019-05-12T12:44:33.952Z,1.22
2019-05-12T12:47:01.903Z,1.20
2019-05-12T12:49:29.614Z,0.90
2019-05-12T12:51:56.980Z,1.10
2019-05-12T12:54:24.373Z,1.00
2019-05-12T12:56:53.440Z,1.42
2019-05-12T12:59:20.966Z,0.98
2019-05-12T13:01:48.375Z,1.10
2019-05-12T13:04:15.786Z,1.22
2019-05-12T13:06:43.755Z,1.17
2019-05-12T13:09:22.569Z,1.65
2019-05-12T13:11:40.489Z,1.32
2019-05-12T13:14:07.875Z,1.35
2019-05-12T13:16:35.306Z,1.45
2019-05-12T13:19:03.783Z,1.65
2019-05-12T13:21:33.591Z,1.98
2019-05-12T13:24:03.422Z,1.87
2019-05-12T13:26:30.306Z,1.60
2019-05-12T13:28:57.696Z,2.00
2019-05-12T13:31:25.084Z,1.62
2019-05-12T13:33:54.843Z,1.77
2019-05-12T13:36:24.029Z,1.98
2019-05-12T13:38:50.770Z,1.70
2019-05-12T13:41:19.923Z,1.70
2019-05-12T13:43:54.443Z,1.85
2019-05-12T13:46:16.551Z,1.90
2019-05-12T13:48:43.967Z,1.22
2019-05-12T13:51:13.210Z,1.40
2019-05-12T13:53:45.604Z,1.22
2019-05-12T13:56:09.763Z,1.40
2019-05-12T13:58:42.700Z,1.50
2019-05-12T14:01:16.204Z,1.57
2019-05-12T14:03:39.911Z,1.40
2019-05-12T14:06:04.964Z,1.32
2019-05-12T14:08:34.275Z,1.35
2019-05-12T14:11:02.322Z,1.30
2019-05-12T14:13:29.744Z,1.50
2019-05-12T14:15:57.578Z,1.60
2019-05-12T14:18:24.970Z,1.92
2019-05-12T14:20:58.504Z,1.50
2019-05-12T14:23:23.832Z,1.98
2019-05-12T14:25:50.960Z,2.00
2019-05-12T14:28:18.360Z,1.62
2019-05-12T14:30:49.757Z,1.52
2019-05-12T14:33:18.131Z,1.50
2019-05-12T14:35:45.996Z,1.70
2019-05-12T14:38:14.208Z,1.40
2019-05-12T14:40:41.670Z,1.10
2019-05-12T14:43:15.783Z,1.40
2019-05-12T14:45:38.503Z,1.10
2019-05-12T14:48:09.301Z,1.30
2019-05-12T14:50:35.294Z,1.00
2019-05-12T14:53:03.540Z,1.30
2019-05-12T14:55:31.015Z,1.52
2019-05-12T14:57:58.454Z,1.40
2019-05-12T15:00:25.866Z,1.60
2019-05-12T15:02:53.965Z,1.10
2019-05-12T15:05:24.544Z,1.50
2019-05-12T15:07:53.469Z,0.90
2019-05-12T15:10:19.838Z,1.40
2019-05-12T15:12:47.226Z,1.20
2019-05-12T15:15:20.236Z,1.10
2019-05-12T15:17:44.367Z,1.00
2019-05-12T15:20:13.792Z,1.27
2019-05-12T15:22:42.885Z,1.02
2019-05-12T15:25:10.603Z,1.30
2019-05-12T15:27:44.969Z,0.88
2019-05-12T15:30:19.109Z,1.07
2019-05-12T15:32:37.341Z,0.90
2019-05-12T15:35:05.066Z,1.52
2019-05-12T15:37:34.995Z,1.15
2019-05-12T15:40:04.138Z,1.20
2019-05-12T15:42:30.926Z,1.42
2019-05-12T15:44:58.306Z,1.05
2019-05-12T15:47:29.676Z,1.30
2019-05-12T15:49:54.973Z,1.10
2019-05-12T15:52:24.521Z,0.90
2019-05-12T15:54:53.953Z,1.10
2019-05-12T15:57:20.819Z,1.00
2019-05-12T15:59:48.213Z,1.20
2019-05-12T16:02:17.026Z,1.00
2019-05-12T16:04:48.435Z,1.10
2019-05-12T16:07:14.220Z,1.17
2019-05-12T16:09:45.429Z,1.27
2019-05-12T16:12:19.885Z,1.20
2019-05-12T16:14:41.230Z,1.10
2019-05-12T16:17:08.828Z,1.20
2019-05-12T16:19:36.214Z,0.95
2019-05-12T16:22:03.750Z,0.80
2019-05-12T16:24:31.119Z,1.20
2019-05-12T16:26:58.529Z,0.93
2019-05-12T16:29:25.896Z,0.90
2019-05-12T16:31:53.642Z,1.30
2019-05-12T16:34:21.057Z,1.00
2019-05-12T16:36:52.077Z,1.17
2019-05-12T16:39:17.646Z,1.20
2019-05-12T16:41:45.070Z,1.10
2019-05-12T16:44:17.469Z,0.85
2019-05-12T16:46:41.659Z,0.90
2019-05-12T16:49:09.087Z,0.80
2019-05-12T16:51:36.378Z,0.80
2019-05-12T16:54:03.850Z,0.70
2019-05-12T16:56:31.310Z,0.90
2019-05-12T16:58:58.698Z,0.90
2019-05-12T17:01:29.312Z,0.95
2019-05-12T17:03:55.323Z,0.88
2019-05-12T17:06:23.397Z,1.00
2019-05-12T17:08:50.908Z,1.22
2019-05-12T17:11:26.393Z,0.90
2019-05-12T17:13:59.763Z,1.25
2019-05-12T17:16:16.997Z,0.88
2019-05-12T17:18:44.462Z,1.20
2019-05-12T17:21:14.126Z,0.80
2019-05-12T17:23:41.114Z,0.82
2019-05-12T17:26:08.506Z,0.88
2019-05-12T17:28:35.909Z,0.93
2019-05-12T17:31:03.952Z,1.10
2019-05-12T17:33:33.758Z,0.72
2019-05-12T17:36:05.001Z,0.72
2019-05-12T17:38:30.315Z,0.70
2019-05-12T17:41:00.749Z,0.82
2019-05-12T17:43:26.899Z,0.60
2019-05-12T17:45:56.882Z,0.80
2019-05-12T17:48:23.606Z,0.98
2019-05-12T17:50:50.939Z,0.70
2019-05-12T17:53:18.370Z,0.95
2019-05-12T17:55:50.815Z,0.90
2019-05-12T17:58:15.019Z,1.00
2019-05-12T18:00:47.638Z,1.00
2019-05-12T18:03:21.524Z,1.00
2019-05-12T18:05:42.411Z,1.00
2019-05-12T18:08:10.021Z,1.00
2019-05-12T18:10:37.925Z,1.00
2019-05-12T18:13:06.609Z,0.80
2019-05-12T18:15:37.799Z,1.10
2019-05-12T18:18:04.070Z,1.30
2019-05-12T18:20:40.084Z,1.00
2019-05-12T18:23:00.892Z,0.90
2019-05-12T18:25:32.292Z,1.22
2019-05-12T18:27:57.479Z,1.05
2019-05-12T18:30:24.862Z,1.00
2019-05-12T18:32:54.982Z,1.10
2019-05-12T18:35:21.503Z,1.00
2019-05-12T18:37:48.900Z,1.00
2019-05-12T18:40:16.481Z,0.90
2019-05-12T18:42:43.902Z,0.90
2019-05-12T18:45:12.932Z,1.02
2019-05-12T18:47:40.509Z,0.90
2019-05-12T18:50:07.862Z,1.10
2019-05-12T18:52:42.282Z,1.20
2019-05-12T18:55:04.709Z,0.85
2019-05-12T18:57:33.798Z,1.17
2019-05-12T19:00:04.075Z,1.12
2019-05-12T19:02:30.402Z,1.05
2019-05-12T19:04:57.798Z,1.10
2019-05-12T19:07:38.916Z,1.10
2019-05-12T19:09:54.287Z,1.10
2019-05-12T19:12:31.741Z,1.25
2019-05-12T19:14:52.580Z,1.22
2019-05-12T19:17:20.665Z,1.10
2019-05-12T19:19:52.023Z,1.20
2019-05-12T19:22:17.282Z,1.40
2019-05-12T19:24:44.686Z,1.10
2019-05-12T19:27:18.968Z,1.22
2019-05-12T19:29:48.195Z,1.15
2019-05-12T19:32:10.631Z,1.92
2019-05-12T19:34:39.418Z,1.75
2019-05-12T19:37:06.862Z,1.30
2019-05-12T19:39:34.435Z,1.60
2019-05-12T19:42:03.747Z,1.25
2019-05-12T19:44:31.014Z,1.22
2019-05-12T19:46:58.414Z,1.47
2019-05-12T19:49:28.219Z,1.17
2019-05-12T19:51:55.008Z,1.10
2019-05-12T19:54:25.528Z,2.40
2019-05-12T19:56:53.611Z,1.50
2019-05-12T19:59:20.934Z,1.60
2019-05-12T20:01:48.354Z,1.35
2019-05-12T20:04:29.754Z,1.20
2019-05-12T20:06:44.942Z,1.20
2019-05-12T20:09:14.637Z,1.27
2019-05-12T20:11:41.563Z,1.45
2019-05-12T20:14:10.008Z,1.40
2019-05-12T20:16:38.210Z,1.62
2019-05-12T20:19:05.635Z,2.30
2019-05-12T20:21:34.013Z,2.12
2019-05-12T20:24:03.576Z,2.12
2019-05-12T20:26:33.208Z,1.77
2019-05-12T20:28:59.858Z,1.32
2019-05-12T20:31:27.429Z,1.60
2019-05-12T20:34:03.446Z,1.62
2019-05-12T20:36:25.940Z,1.72
2019-05-12T20:38:53.857Z,1.52
2019-05-12T20:41:24.397Z,1.57
2019-05-12T20:43:50.470Z,1.45
2019-05-12T20:46:21.830Z,1.85
2019-05-12T20:48:47.050Z,1.90
2019-05-12T20:51:19.995Z,2.40
2019-05-12T20:53:43.727Z,2.12
2019-05-12T20:56:12.077Z,2.33
2019-05-12T20:58:43.528Z,2.10
2019-05-12T21:01:09.497Z,2.30
2019-05-12T21:03:39.851Z,2.20
2019-05-12T21:06:06.078Z,2.20
2019-05-12T21:08:33.915Z,2.45
2019-05-12T21:11:01.311Z,2.10
2019-05-12T21:13:31.760Z,2.12
2019-05-12T21:15:57.877Z,2.33
2019-05-12T21:18:25.260Z,1.62
2019-05-12T21:20:54.710Z,2.02
2019-05-12T21:23:23.928Z,1.87
2019-05-12T21:25:57.740Z,2.15
2019-05-12T21:28:20.235Z,1.65
2019-05-12T21:30:49.633Z,1.60
2019-05-12T21:33:16.826Z,1.40
2019-05-12T21:35:46.023Z,1.17
2019-05-12T21:38:13.565Z,1.37
2019-05-12T21:40:40.925Z,1.27
2019-05-12T21:43:08.303Z,1.40
2019-05-12T21:45:35.698Z,1.15
2019-05-12T21:48:03.643Z,1.40
2019-05-12T21:50:33.754Z,1.07
2019-05-12T21:53:04.107Z,1.27
2019-05-12T21:55:30.894Z,1.70
2019-05-12T21:58:01.615Z,1.30
2019-05-12T22:00:34.748Z,1.20
2019-05-12T22:03:06.835Z,1.32
2019-05-12T22:05:48.101Z,1.82
2019-05-12T22:08:03.180Z,1.05
2019-05-12T22:10:31.566Z,1.30
2019-05-12T22:13:00.331Z,1.35
2019-05-12T22:15:29.386Z,1.30
2019-05-12T22:17:59.637Z,1.00
2019-05-12T22:20:27.676Z,1.20
2019-05-12T22:22:55.063Z,1.40
2019-05-12T22:25:23.598Z,1.15
2019-05-12T22:27:53.733Z,1.50
2019-05-12T22:30:20.290Z,1.57
2019-05-12T22:32:47.699Z,1.25
2019-05-12T22:35:21.634Z,1.37
2019-05-12T22:37:45.091Z,1.67
2019-05-12T22:40:17.315Z,1.37
2019-05-12T22:42:44.376Z,1.70
2019-05-12T22:45:15.154Z,1.50
2019-05-12T22:47:43.817Z,1.50
2019-05-12T22:50:13.180Z,1.60
2019-05-12T22:52:45.174Z,2.00
2019-05-12T22:55:09.558Z,1.45
2019-05-12T22:57:40.138Z,1.57
2019-05-12T23:00:06.947Z,1.70
2019-05-12T23:02:34.423Z,1.70
2019-05-12T23:05:03.561Z,1.32
2019-05-12T23:07:33.046Z,1.67
2019-05-12T23:10:00.717Z,1.45
2019-05-12T23:12:29.453Z,1.30
2019-05-12T23:15:03.082Z,1.40
2019-05-12T23:17:26.019Z,1.42
2019-05-12T23:19:55.687Z,1.57
2019-05-12T23:22:23.654Z,1.42
2019-05-12T23:24:51.106Z,1.42
2019-05-12T23:27:18.743Z,1.37
2019-05-12T23:29:47.703Z,1.57
2019-05-12T23:32:15.222Z,1.25
2019-05-12T23:34:44.904Z,1.50
2019-05-12T23:37:14.014Z,1.37
2019-05-12T23:39:41.098Z,1.47
2019-05-12T23:42:08.504Z,1.40
2019-05-12T23:44:35.894Z,1.50
2019-05-12T23:47:04.256Z,1.45
2019-05-12T23:49:33.689Z,1.70
2019-05-12T23:52:00.955Z,1.30
2019-05-12T23:54:28.354Z,1.50
2019-05-12T23:56:55.771Z,1.80
2019-05-12T23:59:23.987Z,1.60
